sensor_id;sensor_type;location;lat;lon;timestamp;P1;durP1;ratioP1;P2;durP2;ratioP2
56680;SDS011;42558;52.388;13.390;2022-12-18T00:00:22;53.39;;;18.24;;
56680;SDS011;42558;52.388;13.390;2022-12-18T00:02:50;54.34;;;22.42;;
56680;SDS011;42558;52.388;13.390;2022-12-18T00:05:19;46.36;;;18.24;;
56680;SDS011;42558;52.388;13.390;2022-12-18T00:07:47;51.11;;;19.38;;
56680;SDS011;42558;52.388;13.390;2022-12-18T00:10:16;67.26;;;24.13;;
56680;SDS011;42558;52.388;13.390;2022-12-18T00:12:44;68.59;;;22.04;;
56680;SDS011;42558;52.388;13.390;2022-12-18T00:15:13;58.71;;;20.52;;
56680;SDS011;42558;52.388;13.390;2022-12-18T00:17:41;62.32;;;21.47;;
56680;SDS011;42558;52.388;13.390;2022-12-18T00:20:10;59.28;;;22.23;;
56680;SDS011;42558;52.388;13.390;2022-12-18T00:22:38;70.68;;;26.79;;
56680;SDS011;42558;52.388;13.390;2022-12-18T00:25:07;69.54;;;24.51;;
56680;SDS011;42558;52.388;13.390;2022-12-18T00:27:35;70.11;;;23.94;;
56680;SDS011;42558;52.388;13.390;2022-12-18T00:30:05;58.33;;;20.52;;
56680;SDS011;42558;52.388;13.390;2022-12-18T00:32:32;55.29;;;21.85;;
56680;SDS011;42558;52.388;13.390;2022-12-18T00:35:01;62.70;;;22.04;;
56680;SDS011;42558;52.388;13.390;2022-12-18T00:37:29;53.96;;;21.28;;
56680;SDS011;42558;52.388;13.390;2022-12-18T00:39:57;68.21;;;24.13;;
56680;SDS011;42558;52.388;13.390;2022-12-18T00:42:25;52.63;;;21.47;;
56680;SDS011;42558;52.388;13.390;2022-12-18T00:45:11;67.26;;;21.66;;
56680;SDS011;42558;52.388;13.390;2022-12-18T00:47:41;53.39;;;19.19;;
56680;SDS011;42558;52.388;13.390;2022-12-18T00:50:11;58.52;;;19.00;;
56680;SDS011;42558;52.388;13.390;2022-12-18T00:52:39;59.85;;;24.32;;
56680;SDS011;42558;52.388;13.390;2022-12-18T00:55:08;78.09;;;23.94;;
56680;SDS011;42558;52.388;13.390;2022-12-18T00:57:36;63.08;;;22.04;;
56680;SDS011;42558;52.388;13.390;2022-12-18T01:00:07;58.52;;;22.80;;
56680;SDS011;42558;52.388;13.390;2022-12-18T01:02:36;60.80;;;20.52;;
56680;SDS011;42558;52.388;13.390;2022-12-18T01:05:05;65.55;;;23.56;;
56680;SDS011;42558;52.388;13.390;2022-12-18T01:07:33;54.34;;;18.24;;
56680;SDS011;42558;52.388;13.390;2022-12-18T01:10:01;48.83;;;17.67;;
56680;SDS011;42558;52.388;13.390;2022-12-18T01:12:30;43.13;;;17.48;;
56680;SDS011;42558;52.388;13.390;2022-12-18T01:14:58;43.89;;;15.96;;
56680;SDS011;42558;52.388;13.390;2022-12-18T01:17:27;44.65;;;18.05;;
56680;SDS011;42558;52.388;13.390;2022-12-18T01:19:55;60.61;;;20.33;;
56680;SDS011;42558;52.388;13.390;2022-12-18T01:22:23;51.49;;;18.81;;
56680;SDS011;42558;52.388;13.390;2022-12-18T01:24:52;51.30;;;18.81;;
56680;SDS011;42558;52.388;13.390;2022-12-18T01:27:20;51.49;;;18.24;;
56680;SDS011;42558;52.388;13.390;2022-12-18T01:29:49;57.38;;;20.33;;
56680;SDS011;42558;52.388;13.390;2022-12-18T01:32:17;52.44;;;19.38;;
56680;SDS011;42558;52.388;13.390;2022-12-18T01:34:46;61.18;;;22.42;;
56680;SDS011;42558;52.388;13.390;2022-12-18T01:37:14;51.68;;;20.90;;
56680;SDS011;42558;52.388;13.390;2022-12-18T01:39:42;50.73;;;19.95;;
56680;SDS011;42558;52.388;13.390;2022-12-18T01:42:14;63.27;;;24.13;;
56680;SDS011;42558;52.388;13.390;2022-12-18T01:48:01;59.66;;;20.71;;
56680;SDS011;42558;52.388;13.390;2022-12-18T01:50:38;64.60;;;21.66;;
56680;SDS011;42558;52.388;13.390;2022-12-18T01:53:13;59.66;;;21.47;;
56680;SDS011;42558;52.388;13.390;2022-12-18T01:55:49;56.05;;;19.95;;
56680;SDS011;42558;52.388;13.390;2022-12-18T01:58:39;73.72;;;23.94;;
56680;SDS011;42558;52.388;13.390;2022-12-18T02:01:16;49.97;;;15.58;;
56680;SDS011;42558;52.388;13.390;2022-12-18T02:03:46;58.14;;;23.94;;
56680;SDS011;42558;52.388;13.390;2022-12-18T02:06:38;58.52;;;21.85;;
56680;SDS011;42558;52.388;13.390;2022-12-18T02:09:13;68.21;;;24.89;;
56680;SDS011;42558;52.388;13.390;2022-12-18T02:11:57;56.62;;;21.66;;
56680;SDS011;42558;52.388;13.390;2022-12-18T02:17:25;60.61;;;24.32;;
56680;SDS011;42558;52.388;13.390;2022-12-18T02:20:22;64.79;;;23.94;;
56680;SDS011;42558;52.388;13.390;2022-12-18T02:23:24;57.57;;;22.04;;
56680;SDS011;42558;52.388;13.390;2022-12-18T02:28:59;70.11;;;24.51;;
56680;SDS011;42558;52.388;13.390;2022-12-18T02:31:44;73.15;;;25.65;;
56680;SDS011;42558;52.388;13.390;2022-12-18T02:34:18;64.60;;;22.80;;
56680;SDS011;42558;52.388;13.390;2022-12-18T02:36:51;67.07;;;23.75;;
56680;SDS011;42558;52.388;13.390;2022-12-18T02:39:25;58.52;;;22.99;;
56680;SDS011;42558;52.388;13.390;2022-12-18T02:41:58;55.86;;;20.71;;
56680;SDS011;42558;52.388;13.390;2022-12-18T02:44:31;61.94;;;21.85;;
56680;SDS011;42558;52.388;13.390;2022-12-18T02:47:01;64.41;;;21.09;;
56680;SDS011;42558;52.388;13.390;2022-12-18T03:01:43;84.74;;;29.64;;
56680;SDS011;42558;52.388;13.390;2022-12-18T03:04:30;75.81;;;23.94;;
56680;SDS011;42558;52.388;13.390;2022-12-18T03:07:16;64.22;;;24.13;;
56680;SDS011;42558;52.388;13.390;2022-12-18T03:09:53;68.40;;;25.08;;
56680;SDS011;42558;52.388;13.390;2022-12-18T03:12:30;71.44;;;26.60;;
56680;SDS011;42558;52.388;13.390;2022-12-18T03:15:10;72.77;;;26.98;;
56680;SDS011;42558;52.388;13.390;2022-12-18T03:18:23;79.80;;;25.27;;
56680;SDS011;42558;52.388;13.390;2022-12-18T03:21:18;87.78;;;28.69;;
56680;SDS011;42558;52.388;13.390;2022-12-18T03:23:53;80.37;;;26.79;;
56680;SDS011;42558;52.388;13.390;2022-12-18T03:26:25;83.60;;;32.11;;
56680;SDS011;42558;52.388;13.390;2022-12-18T03:29:03;78.47;;;27.93;;
56680;SDS011;42558;52.388;13.390;2022-12-18T03:31:40;89.49;;;33.44;;
56680;SDS011;42558;52.388;13.390;2022-12-18T03:34:21;93.10;;;30.21;;
56680;SDS011;42558;52.388;13.390;2022-12-18T03:36:56;81.51;;;26.60;;
56680;SDS011;42558;52.388;13.390;2022-12-18T03:39:27;82.08;;;30.40;;
56680;SDS011;42558;52.388;13.390;2022-12-18T03:42:19;89.68;;;34.01;;
56680;SDS011;42558;52.388;13.390;2022-12-18T03:45:19;91.96;;;30.59;;
56680;SDS011;42558;52.388;13.390;2022-12-18T03:50:48;77.90;;;29.26;;
56680;SDS011;42558;52.388;13.390;2022-12-18T03:56:21;88.54;;;28.31;;
56680;SDS011;42558;52.388;13.390;2022-12-18T03:58:52;85.31;;;29.45;;
56680;SDS011;42558;52.388;13.390;2022-12-18T04:01:29;101.84;;;33.63;;
56680;SDS011;42558;52.388;13.390;2022-12-18T04:04:06;94.24;;;30.59;;
56680;SDS011;42558;52.388;13.390;2022-12-18T04:06:40;97.09;;;31.92;;
56680;SDS011;42558;52.388;13.390;2022-12-18T04:09:12;87.40;;;28.88;;
56680;SDS011;42558;52.388;13.390;2022-12-18T04:11:42;85.31;;;28.69;;
56680;SDS011;42558;52.388;13.390;2022-12-18T04:14:13;80.56;;;27.93;;
56680;SDS011;42558;52.388;13.390;2022-12-18T04:16:47;71.25;;;25.65;;
56680;SDS011;42558;52.388;13.390;2022-12-18T04:19:16;97.66;;;30.97;;
56680;SDS011;42558;52.388;13.390;2022-12-18T04:21:46;83.60;;;29.07;;
56680;SDS011;42558;52.388;13.390;2022-12-18T04:24:16;75.05;;;26.60;;
56680;SDS011;42558;52.388;13.390;2022-12-18T04:26:46;81.13;;;26.03;;
56680;SDS011;42558;52.388;13.390;2022-12-18T04:29:15;74.29;;;27.36;;
56680;SDS011;42558;52.388;13.390;2022-12-18T04:31:45;79.23;;;28.31;;
56680;SDS011;42558;52.388;13.390;2022-12-18T04:34:15;69.92;;;24.51;;
56680;SDS011;42558;52.388;13.390;2022-12-18T04:36:45;71.25;;;21.85;;
56680;SDS011;42558;52.388;13.390;2022-12-18T04:39:15;69.54;;;26.41;;
56680;SDS011;42558;52.388;13.390;2022-12-18T04:41:45;82.08;;;26.98;;
56680;SDS011;42558;52.388;13.390;2022-12-18T04:44:14;78.47;;;25.84;;
56680;SDS011;42558;52.388;13.390;2022-12-18T04:46:45;90.44;;;28.12;;
56680;SDS011;42558;52.388;13.390;2022-12-18T04:49:15;73.53;;;25.27;;
56680;SDS011;42558;52.388;13.390;2022-12-18T04:51:44;100.13;;;33.06;;
56680;SDS011;42558;52.388;13.390;2022-12-18T04:54:14;96.90;;;32.11;;
56680;SDS011;42558;52.388;13.390;2022-12-18T04:56:44;91.96;;;29.26;;
56680;SDS011;42558;52.388;13.390;2022-12-18T04:59:14;95.38;;;32.11;;
56680;SDS011;42558;52.388;13.390;2022-12-18T05:01:44;89.11;;;30.59;;
56680;SDS011;42558;52.388;13.390;2022-12-18T05:04:15;87.02;;;28.69;;
56680;SDS011;42558;52.388;13.390;2022-12-18T05:06:46;99.18;;;31.73;;
56680;SDS011;42558;52.388;13.390;2022-12-18T05:09:16;88.16;;;27.36;;
56680;SDS011;42558;52.388;13.390;2022-12-18T05:11:45;95.76;;;29.83;;
56680;SDS011;42558;52.388;13.390;2022-12-18T05:14:13;91.39;;;31.16;;
56680;SDS011;42558;52.388;13.390;2022-12-18T05:16:42;115.71;;;37.43;;
56680;SDS011;42558;52.388;13.390;2022-12-18T05:19:10;106.59;;;37.43;;
56680;SDS011;42558;52.388;13.390;2022-12-18T05:21:38;101.08;;;32.87;;
56680;SDS011;42558;52.388;13.390;2022-12-18T05:24:07;89.49;;;30.40;;
56680;SDS011;42558;52.388;13.390;2022-12-18T05:26:35;94.24;;;32.87;;
56680;SDS011;42558;52.388;13.390;2022-12-18T05:29:04;95.00;;;32.30;;
56680;SDS011;42558;52.388;13.390;2022-12-18T05:31:32;89.30;;;30.97;;
56680;SDS011;42558;52.388;13.390;2022-12-18T05:34:08;101.27;;;34.96;;
56680;SDS011;42558;52.388;13.390;2022-12-18T05:36:38;108.68;;;35.91;;
56680;SDS011;42558;52.388;13.390;2022-12-18T05:39:08;100.89;;;33.06;;
56680;SDS011;42558;52.388;13.390;2022-12-18T05:41:38;98.61;;;34.20;;
56680;SDS011;42558;52.388;13.390;2022-12-18T05:44:08;98.80;;;32.68;;
56680;SDS011;42558;52.388;13.390;2022-12-18T05:46:38;96.33;;;33.63;;
56680;SDS011;42558;52.388;13.390;2022-12-18T05:49:08;82.84;;;27.55;;
56680;SDS011;42558;52.388;13.390;2022-12-18T05:51:38;81.89;;;30.21;;
56680;SDS011;42558;52.388;13.390;2022-12-18T05:54:08;108.49;;;34.01;;
56680;SDS011;42558;52.388;13.390;2022-12-18T05:56:38;91.77;;;32.68;;
56680;SDS011;42558;52.388;13.390;2022-12-18T05:59:15;100.89;;;36.67;;
56680;SDS011;42558;52.388;13.390;2022-12-18T06:01:45;93.29;;;32.68;;
56680;SDS011;42558;52.388;13.390;2022-12-18T06:04:15;100.13;;;37.43;;
56680;SDS011;42558;52.388;13.390;2022-12-18T06:06:45;80.56;;;30.97;;
56680;SDS011;42558;52.388;13.390;2022-12-18T06:09:15;87.59;;;31.16;;
56680;SDS011;42558;52.388;13.390;2022-12-18T06:11:45;93.29;;;32.11;;
56680;SDS011;42558;52.388;13.390;2022-12-18T06:14:15;69.16;;;26.22;;
56680;SDS011;42558;52.388;13.390;2022-12-18T06:16:46;95.57;;;32.87;;
56680;SDS011;42558;52.388;13.390;2022-12-18T06:19:16;88.92;;;32.30;;
56680;SDS011;42558;52.388;13.390;2022-12-18T06:21:46;99.18;;;32.11;;
56680;SDS011;42558;52.388;13.390;2022-12-18T06:24:16;96.14;;;33.25;;
56680;SDS011;42558;52.388;13.390;2022-12-18T06:26:46;114.00;;;32.11;;
56680;SDS011;42558;52.388;13.390;2022-12-18T06:29:16;81.70;;;30.21;;
56680;SDS011;42558;52.388;13.390;2022-12-18T06:31:45;101.27;;;33.63;;
56680;SDS011;42558;52.388;13.390;2022-12-18T06:34:15;82.84;;;26.79;;
56680;SDS011;42558;52.388;13.390;2022-12-18T06:36:45;79.42;;;26.98;;
56680;SDS011;42558;52.388;13.390;2022-12-18T06:39:15;80.18;;;30.97;;
56680;SDS011;42558;52.388;13.390;2022-12-18T06:41:42;89.68;;;27.36;;
56680;SDS011;42558;52.388;13.390;2022-12-18T06:44:09;83.41;;;27.93;;
56680;SDS011;42558;52.388;13.390;2022-12-18T06:46:40;88.16;;;29.07;;
56680;SDS011;42558;52.388;13.390;2022-12-18T06:49:09;79.80;;;27.36;;
56680;SDS011;42558;52.388;13.390;2022-12-18T06:51:39;82.84;;;27.36;;
56680;SDS011;42558;52.388;13.390;2022-12-18T06:54:09;70.49;;;25.08;;
56680;SDS011;42558;52.388;13.390;2022-12-18T06:56:39;83.22;;;29.26;;
56680;SDS011;42558;52.388;13.390;2022-12-18T06:59:09;64.60;;;23.75;;
56680;SDS011;42558;52.388;13.390;2022-12-18T07:01:38;53.96;;;20.52;;
56680;SDS011;42558;52.388;13.390;2022-12-18T07:04:08;49.40;;;18.81;;
56680;SDS011;42558;52.388;13.390;2022-12-18T07:06:38;59.47;;;20.90;;
56680;SDS011;42558;52.388;13.390;2022-12-18T07:09:08;50.73;;;20.14;;
56680;SDS011;42558;52.388;13.390;2022-12-18T07:11:38;53.01;;;18.24;;
56680;SDS011;42558;52.388;13.390;2022-12-18T07:14:07;64.60;;;24.70;;
56680;SDS011;42558;52.388;13.390;2022-12-18T07:16:37;55.10;;;22.42;;
56680;SDS011;42558;52.388;13.390;2022-12-18T07:19:07;62.13;;;20.14;;
56680;SDS011;42558;52.388;13.390;2022-12-18T07:21:36;63.27;;;22.42;;
56680;SDS011;42558;52.388;13.390;2022-12-18T07:24:06;62.89;;;18.24;;
56680;SDS011;42558;52.388;13.390;2022-12-18T07:26:35;65.74;;;23.18;;
56680;SDS011;42558;52.388;13.390;2022-12-18T07:29:05;61.75;;;24.32;;
56680;SDS011;42558;52.388;13.390;2022-12-18T07:31:34;64.98;;;22.61;;
56680;SDS011;42558;52.388;13.390;2022-12-18T07:34:04;62.13;;;22.04;;
56680;SDS011;42558;52.388;13.390;2022-12-18T07:36:34;49.21;;;20.71;;
56680;SDS011;42558;52.388;13.390;2022-12-18T07:39:04;74.67;;;26.60;;
56680;SDS011;42558;52.388;13.390;2022-12-18T07:41:34;70.30;;;24.70;;
56680;SDS011;42558;52.388;13.390;2022-12-18T07:44:03;43.13;;;15.58;;
56680;SDS011;42558;52.388;13.390;2022-12-18T07:46:33;60.23;;;20.14;;
56680;SDS011;42558;52.388;13.390;2022-12-18T07:49:03;60.61;;;22.99;;
56680;SDS011;42558;52.388;13.390;2022-12-18T07:51:33;64.03;;;23.56;;
56680;SDS011;42558;52.388;13.390;2022-12-18T07:54:03;68.21;;;22.42;;
56680;SDS011;42558;52.388;13.390;2022-12-18T07:56:33;52.63;;;19.19;;
56680;SDS011;42558;52.388;13.390;2022-12-18T07:59:03;59.09;;;22.23;;
56680;SDS011;42558;52.388;13.390;2022-12-18T08:01:33;63.84;;;22.99;;
56680;SDS011;42558;52.388;13.390;2022-12-18T08:04:03;73.72;;;28.31;;
56680;SDS011;42558;52.388;13.390;2022-12-18T08:06:33;64.41;;;23.75;;
56680;SDS011;42558;52.388;13.390;2022-12-18T08:09:03;54.72;;;22.23;;
56680;SDS011;42558;52.388;13.390;2022-12-18T08:11:32;66.31;;;23.56;;
56680;SDS011;42558;52.388;13.390;2022-12-18T08:14:02;62.89;;;20.71;;
56680;SDS011;42558;52.388;13.390;2022-12-18T08:16:32;60.99;;;24.13;;
56680;SDS011;42558;52.388;13.390;2022-12-18T08:19:02;77.14;;;26.03;;
56680;SDS011;42558;52.388;13.390;2022-12-18T08:21:32;65.74;;;23.75;;
56680;SDS011;42558;52.388;13.390;2022-12-18T08:24:02;77.71;;;26.03;;
56680;SDS011;42558;52.388;13.390;2022-12-18T08:26:32;69.73;;;25.65;;
56680;SDS011;42558;52.388;13.390;2022-12-18T08:29:02;64.60;;;23.56;;
56680;SDS011;42558;52.388;13.390;2022-12-18T08:31:32;76.76;;;25.08;;
56680;SDS011;42558;52.388;13.390;2022-12-18T08:34:02;81.70;;;26.60;;
56680;SDS011;42558;52.388;13.390;2022-12-18T08:36:32;78.09;;;27.36;;
56680;SDS011;42558;52.388;13.390;2022-12-18T08:39:02;75.81;;;25.27;;
56680;SDS011;42558;52.388;13.390;2022-12-18T08:41:32;71.25;;;25.08;;
56680;SDS011;42558;52.388;13.390;2022-12-18T08:44:02;58.52;;;20.33;;
56680;SDS011;42558;52.388;13.390;2022-12-18T08:46:50;48.45;;;18.43;;
56680;SDS011;42558;52.388;13.390;2022-12-18T08:49:20;67.26;;;25.65;;
56680;SDS011;42558;52.388;13.390;2022-12-18T08:51:54;57.00;;;21.66;;
56680;SDS011;42558;52.388;13.390;2022-12-18T08:54:25;52.25;;;17.10;;
56680;SDS011;42558;52.388;13.390;2022-12-18T08:56:53;72.01;;;23.75;;
56680;SDS011;42558;52.388;13.390;2022-12-18T08:59:22;75.05;;;26.60;;
56680;SDS011;42558;52.388;13.390;2022-12-18T09:01:53;72.77;;;26.98;;
56680;SDS011;42558;52.388;13.390;2022-12-18T09:04:23;68.97;;;23.37;;
56680;SDS011;42558;52.388;13.390;2022-12-18T09:06:53;60.04;;;22.04;;
56680;SDS011;42558;52.388;13.390;2022-12-18T09:09:23;52.25;;;18.05;;
56680;SDS011;42558;52.388;13.390;2022-12-18T09:11:53;60.04;;;19.95;;
56680;SDS011;42558;52.388;13.390;2022-12-18T09:14:22;66.69;;;23.94;;
56680;SDS011;42558;52.388;13.390;2022-12-18T09:16:52;56.24;;;22.23;;
56680;SDS011;42558;52.388;13.390;2022-12-18T09:19:22;56.24;;;21.47;;
56680;SDS011;42558;52.388;13.390;2022-12-18T09:21:52;61.18;;;23.75;;
56680;SDS011;42558;52.388;13.390;2022-12-18T09:24:22;57.57;;;20.71;;
56680;SDS011;42558;52.388;13.390;2022-12-18T09:26:55;63.27;;;25.46;;
56680;SDS011;42558;52.388;13.390;2022-12-18T09:29:26;56.62;;;20.14;;
56680;SDS011;42558;52.388;13.390;2022-12-18T09:31:54;53.77;;;22.04;;
56680;SDS011;42558;52.388;13.390;2022-12-18T09:34:23;48.64;;;21.09;;
56680;SDS011;42558;52.388;13.390;2022-12-18T09:36:51;57.76;;;19.38;;
56680;SDS011;42558;52.388;13.390;2022-12-18T09:39:20;50.73;;;21.66;;
56680;SDS011;42558;52.388;13.390;2022-12-18T09:41:57;44.65;;;17.29;;
56680;SDS011;42558;52.388;13.390;2022-12-18T09:44:32;51.87;;;20.71;;
56680;SDS011;42558;52.388;13.390;2022-12-18T09:47:18;59.85;;;22.61;;
56680;SDS011;42558;52.388;13.390;2022-12-18T09:49:56;49.59;;;20.14;;
56680;SDS011;42558;52.388;13.390;2022-12-18T09:52:35;41.23;;;16.53;;
56680;SDS011;42558;52.388;13.390;2022-12-18T10:00:52;46.36;;;19.38;;
56680;SDS011;42558;52.388;13.390;2022-12-18T10:03:22;46.36;;;19.19;;
56680;SDS011;42558;52.388;13.390;2022-12-18T10:06:06;50.35;;;20.52;;
56680;SDS011;42558;52.388;13.390;2022-12-18T10:09:03;51.68;;;21.09;;
56680;SDS011;42558;52.388;13.390;2022-12-18T10:21:13;64.03;;;23.94;;
56680;SDS011;42558;52.388;13.390;2022-12-18T10:26:43;63.65;;;22.04;;
56680;SDS011;42558;52.388;13.390;2022-12-18T10:29:16;37.24;;;14.82;;
56680;SDS011;42558;52.388;13.390;2022-12-18T10:31:46;59.85;;;21.28;;
56680;SDS011;42558;52.388;13.390;2022-12-18T10:34:15;53.77;;;21.47;;
56680;SDS011;42558;52.388;13.390;2022-12-18T10:36:47;40.28;;;16.53;;
56680;SDS011;42558;52.388;13.390;2022-12-18T10:39:23;47.88;;;20.14;;
56680;SDS011;42558;52.388;13.390;2022-12-18T10:42:18;61.37;;;22.23;;
56680;SDS011;42558;52.388;13.390;2022-12-18T10:45:02;60.61;;;22.42;;
56680;SDS011;42558;52.388;13.390;2022-12-18T10:47:42;63.08;;;22.42;;
56680;SDS011;42558;52.388;13.390;2022-12-18T10:50:35;55.29;;;20.71;;
56680;SDS011;42558;52.388;13.390;2022-12-18T10:53:30;62.51;;;24.51;;
56680;SDS011;42558;52.388;13.390;2022-12-18T10:56:03;54.72;;;21.85;;
56680;SDS011;42558;52.388;13.390;2022-12-18T10:58:37;66.69;;;21.85;;
56680;SDS011;42558;52.388;13.390;2022-12-18T11:01:18;50.54;;;20.33;;
56680;SDS011;42558;52.388;13.390;2022-12-18T11:06:30;49.97;;;19.57;;
56680;SDS011;42558;52.388;13.390;2022-12-18T11:11:48;64.98;;;24.51;;
56680;SDS011;42558;52.388;13.390;2022-12-18T11:14:29;67.07;;;23.75;;
56680;SDS011;42558;52.388;13.390;2022-12-18T11:17:02;50.35;;;19.19;;
56680;SDS011;42558;52.388;13.390;2022-12-18T11:19:59;64.22;;;23.75;;
56680;SDS011;42558;52.388;13.390;2022-12-18T11:22:33;61.75;;;21.66;;
56680;SDS011;42558;52.388;13.390;2022-12-18T11:25:18;56.62;;;19.76;;
56680;SDS011;42558;52.388;13.390;2022-12-18T11:31:22;62.89;;;23.56;;
56680;SDS011;42558;52.388;13.390;2022-12-18T11:34:17;53.39;;;22.61;;
56680;SDS011;42558;52.388;13.390;2022-12-18T11:36:59;60.04;;;22.23;;
56680;SDS011;42558;52.388;13.390;2022-12-18T11:39:55;52.82;;;19.57;;
56680;SDS011;42558;52.388;13.390;2022-12-18T11:42:50;76.00;;;26.41;;
56680;SDS011;42558;52.388;13.390;2022-12-18T11:45:29;51.87;;;22.61;;
56680;SDS011;42558;52.388;13.390;2022-12-18T11:48:22;57.76;;;23.18;;
56680;SDS011;42558;52.388;13.390;2022-12-18T11:51:01;51.68;;;20.52;;
56680;SDS011;42558;52.388;13.390;2022-12-18T11:53:35;53.01;;;20.52;;
56680;SDS011;42558;52.388;13.390;2022-12-18T12:01:44;60.23;;;21.47;;
56680;SDS011;42558;52.388;13.390;2022-12-18T12:16:44;47.50;;;20.52;;
56680;SDS011;42558;52.388;13.390;2022-12-18T12:19:48;50.73;;;20.33;;
56680;SDS011;42558;52.388;13.390;2022-12-18T12:30:30;63.46;;;24.32;;
56680;SDS011;42558;52.388;13.390;2022-12-18T12:39:28;47.12;;;19.76;;
56680;SDS011;42558;52.388;13.390;2022-12-18T12:42:04;42.94;;;19.57;;
56680;SDS011;42558;52.388;13.390;2022-12-18T12:45:22;47.31;;;19.19;;
56680;SDS011;42558;52.388;13.390;2022-12-18T12:48:02;41.23;;;18.24;;
56680;SDS011;42558;52.388;13.390;2022-12-18T12:50:37;39.14;;;18.62;;
56680;SDS011;42558;52.388;13.390;2022-12-18T12:53:17;44.08;;;18.24;;
56680;SDS011;42558;52.388;13.390;2022-12-18T12:55:55;40.47;;;18.05;;
56680;SDS011;42558;52.388;13.390;2022-12-18T12:58:33;41.42;;;17.67;;
56680;SDS011;42558;52.388;13.390;2022-12-18T13:15:42;37.24;;;18.62;;
56680;SDS011;42558;52.388;13.390;2022-12-18T13:18:18;43.32;;;20.71;;
56680;SDS011;42558;52.388;13.390;2022-12-18T13:23:33;46.74;;;20.52;;
56680;SDS011;42558;52.388;13.390;2022-12-18T13:28:58;48.83;;;22.42;;
56680;SDS011;42558;52.388;13.390;2022-12-18T13:34:20;47.69;;;19.19;;
56680;SDS011;42558;52.388;13.390;2022-12-18T13:40:06;41.42;;;17.67;;
56680;SDS011;42558;52.388;13.390;2022-12-18T13:45:50;48.64;;;21.09;;
56680;SDS011;42558;52.388;13.390;2022-12-18T13:48:36;56.62;;;23.75;;
56680;SDS011;42558;52.388;13.390;2022-12-18T13:51:10;54.91;;;23.94;;
56680;SDS011;42558;52.388;13.390;2022-12-18T13:56:32;69.73;;;29.45;;
56680;SDS011;42558;52.388;13.390;2022-12-18T13:59:13;61.75;;;26.03;;
56680;SDS011;42558;52.388;13.390;2022-12-18T14:01:52;69.73;;;29.64;;
56680;SDS011;42558;52.388;13.390;2022-12-18T14:04:29;58.71;;;25.65;;
56680;SDS011;42558;52.388;13.390;2022-12-18T14:07:15;88.54;;;34.01;;
56680;SDS011;42558;52.388;13.390;2022-12-18T14:09:50;73.91;;;29.26;;
56680;SDS011;42558;52.388;13.390;2022-12-18T14:12:36;68.40;;;30.97;;
56680;SDS011;42558;52.388;13.390;2022-12-18T14:15:40;71.82;;;26.22;;
56680;SDS011;42558;52.388;13.390;2022-12-18T14:20:49;83.22;;;32.11;;
56680;SDS011;42558;52.388;13.390;2022-12-18T14:23:37;77.71;;;30.97;;
56680;SDS011;42558;52.388;13.390;2022-12-18T14:26:21;85.31;;;33.25;;
56680;SDS011;42558;52.388;13.390;2022-12-18T14:28:55;81.32;;;31.54;;
56680;SDS011;42558;52.388;13.390;2022-12-18T14:31:31;77.90;;;33.06;;
56680;SDS011;42558;52.388;13.390;2022-12-18T14:33:58;65.74;;;27.36;;
56680;SDS011;42558;52.388;13.390;2022-12-18T14:36:28;81.32;;;28.88;;
56680;SDS011;42558;52.388;13.390;2022-12-18T14:38:59;79.61;;;30.59;;
56680;SDS011;42558;52.388;13.390;2022-12-18T14:41:27;67.45;;;23.75;;
56680;SDS011;42558;52.388;13.390;2022-12-18T14:44:05;66.31;;;25.65;;
56680;SDS011;42558;52.388;13.390;2022-12-18T14:46:38;60.04;;;27.74;;
56680;SDS011;42558;52.388;13.390;2022-12-18T14:49:27;49.02;;;22.23;;
56680;SDS011;42558;52.388;13.390;2022-12-18T14:52:34;60.99;;;28.69;;
56680;SDS011;42558;52.388;13.390;2022-12-18T14:55:05;42.75;;;21.28;;
56680;SDS011;42558;52.388;13.390;2022-12-18T14:57:43;57.19;;;25.65;;
56680;SDS011;42558;52.388;13.390;2022-12-18T15:00:17;54.53;;;23.94;;
56680;SDS011;42558;52.388;13.390;2022-12-18T15:02:54;40.85;;;21.66;;
56680;SDS011;42558;52.388;13.390;2022-12-18T15:05:30;37.62;;;17.10;;
56680;SDS011;42558;52.388;13.390;2022-12-18T15:08:01;40.66;;;17.86;;
56680;SDS011;42558;52.388;13.390;2022-12-18T15:10:33;46.55;;;22.80;;
56680;SDS011;42558;52.388;13.390;2022-12-18T15:20:51;46.74;;;20.33;;
56680;SDS011;42558;52.388;13.390;2022-12-18T15:23:47;59.47;;;33.82;;
56680;SDS011;42558;52.388;13.390;2022-12-18T15:26:21;50.35;;;20.90;;
56680;SDS011;42558;52.388;13.390;2022-12-18T15:28:53;51.68;;;23.75;;
56680;SDS011;42558;52.388;13.390;2022-12-18T15:31:30;50.54;;;21.09;;
56680;SDS011;42558;52.388;13.390;2022-12-18T15:34:13;46.36;;;21.47;;
56680;SDS011;42558;52.388;13.390;2022-12-18T15:36:50;47.69;;;21.85;;
56680;SDS011;42558;52.388;13.390;2022-12-18T15:39:21;49.97;;;23.18;;
56680;SDS011;42558;52.388;13.390;2022-12-18T15:41:51;53.96;;;24.70;;
56680;SDS011;42558;52.388;13.390;2022-12-18T15:44:43;55.86;;;23.94;;
56680;SDS011;42558;52.388;13.390;2022-12-18T15:47:12;54.53;;;24.13;;
56680;SDS011;42558;52.388;13.390;2022-12-18T15:49:42;59.47;;;25.84;;
56680;SDS011;42558;52.388;13.390;2022-12-18T15:52:13;58.71;;;24.70;;
56680;SDS011;42558;52.388;13.390;2022-12-18T15:54:43;40.66;;;18.81;;
56680;SDS011;42558;52.388;13.390;2022-12-18T15:57:32;43.70;;;19.38;;
56680;SDS011;42558;52.388;13.390;2022-12-18T16:00:03;43.13;;;18.81;;
56680;SDS011;42558;52.388;13.390;2022-12-18T16:02:33;41.61;;;17.48;;
56680;SDS011;42558;52.388;13.390;2022-12-18T16:05:12;36.86;;;17.10;;
56680;SDS011;42558;52.388;13.390;2022-12-18T16:07:46;37.81;;;17.48;;
56680;SDS011;42558;52.388;13.390;2022-12-18T16:10:16;42.94;;;20.71;;
56680;SDS011;42558;52.388;13.390;2022-12-18T16:12:47;42.75;;;19.76;;
56680;SDS011;42558;52.388;13.390;2022-12-18T16:15:16;36.86;;;18.43;;
56680;SDS011;42558;52.388;13.390;2022-12-18T16:17:52;47.31;;;21.85;;
56680;SDS011;42558;52.388;13.390;2022-12-18T16:20:22;48.45;;;23.37;;
56680;SDS011;42558;52.388;13.390;2022-12-18T16:22:52;39.90;;;17.86;;
56680;SDS011;42558;52.388;13.390;2022-12-18T16:25:25;45.03;;;20.71;;
56680;SDS011;42558;52.388;13.390;2022-12-18T16:27:56;41.99;;;21.28;;
56680;SDS011;42558;52.388;13.390;2022-12-18T16:30:28;35.91;;;16.72;;
56680;SDS011;42558;52.388;13.390;2022-12-18T16:33:09;44.08;;;21.09;;
56680;SDS011;42558;52.388;13.390;2022-12-18T16:35:40;49.59;;;18.62;;
56680;SDS011;42558;52.388;13.390;2022-12-18T16:38:11;36.67;;;17.48;;
56680;SDS011;42558;52.388;13.390;2022-12-18T16:40:40;36.10;;;16.91;;
56680;SDS011;42558;52.388;13.390;2022-12-18T16:43:30;38.76;;;18.24;;
56680;SDS011;42558;52.388;13.390;2022-12-18T16:46:00;38.19;;;17.86;;
56680;SDS011;42558;52.388;13.390;2022-12-18T16:48:30;48.64;;;22.04;;
56680;SDS011;42558;52.388;13.390;2022-12-18T16:51:02;45.22;;;20.14;;
56680;SDS011;42558;52.388;13.390;2022-12-18T16:53:33;47.12;;;24.51;;
56680;SDS011;42558;52.388;13.390;2022-12-18T16:56:03;35.53;;;18.62;;